sensor_id;sensor_type;location;lat;lon;timestamp;P1;durP1;ratioP1;P2;durP2;ratioP2
58731;SDS011;44508;44.626;21.182;2023-02-25T00:01:09;40.55;;;19.48;;
58731;SDS011;44508;44.626;21.182;2023-02-25T00:03:36;52.88;;;19.83;;
58731;SDS011;44508;44.626;21.182;2023-02-25T00:06:03;43.75;;;20.20;;
58731;SDS011;44508;44.626;21.182;2023-02-25T00:08:29;44.72;;;20.95;;
58731;SDS011;44508;44.626;21.182;2023-02-25T00:10:59;47.85;;;20.40;;
58731;SDS011;44508;44.626;21.182;2023-02-25T00:13:26;45.25;;;19.70;;
58731;SDS011;44508;44.626;21.182;2023-02-25T00:15:53;47.97;;;17.58;;
58731;SDS011;44508;44.626;21.182;2023-02-25T00:18:22;43.72;;;20.10;;
58731;SDS011;44508;44.626;21.182;2023-02-25T00:20:48;43.42;;;19.50;;
58731;SDS011;44508;44.626;21.182;2023-02-25T00:23:14;45.50;;;19.27;;
58731;SDS011;44508;44.626;21.182;2023-02-25T00:25:40;40.45;;;19.17;;
58731;SDS011;44508;44.626;21.182;2023-02-25T00:28:06;52.40;;;20.98;;
58731;SDS011;44508;44.626;21.182;2023-02-25T00:30:33;47.40;;;19.13;;
58731;SDS011;44508;44.626;21.182;2023-02-25T00:32:59;43.08;;;18.80;;
58731;SDS011;44508;44.626;21.182;2023-02-25T00:35:25;41.28;;;17.52;;
58731;SDS011;44508;44.626;21.182;2023-02-25T00:37:51;46.42;;;18.58;;
58731;SDS011;44508;44.626;21.182;2023-02-25T00:40:18;42.00;;;17.02;;
58731;SDS011;44508;44.626;21.182;2023-02-25T00:42:44;42.65;;;17.73;;
58731;SDS011;44508;44.626;21.182;2023-02-25T00:45:10;41.95;;;17.10;;
58731;SDS011;44508;44.626;21.182;2023-02-25T00:47:36;39.28;;;17.73;;
58731;SDS011;44508;44.626;21.182;2023-02-25T00:50:06;51.60;;;18.20;;
58731;SDS011;44508;44.626;21.182;2023-02-25T00:52:33;50.28;;;18.67;;
58731;SDS011;44508;44.626;21.182;2023-02-25T00:54:59;43.80;;;16.77;;
58731;SDS011;44508;44.626;21.182;2023-02-25T00:57:25;46.90;;;17.98;;
58731;SDS011;44508;44.626;21.182;2023-02-25T00:59:52;43.75;;;18.05;;
58731;SDS011;44508;44.626;21.182;2023-02-25T01:02:18;45.42;;;18.13;;
58731;SDS011;44508;44.626;21.182;2023-02-25T01:04:44;47.92;;;19.13;;
58731;SDS011;44508;44.626;21.182;2023-02-25T01:07:10;42.75;;;18.17;;
58731;SDS011;44508;44.626;21.182;2023-02-25T01:09:36;46.65;;;18.20;;
58731;SDS011;44508;44.626;21.182;2023-02-25T01:12:02;46.60;;;18.92;;
58731;SDS011;44508;44.626;21.182;2023-02-25T01:14:28;39.50;;;17.95;;
58731;SDS011;44508;44.626;21.182;2023-02-25T01:16:54;38.65;;;18.42;;
58731;SDS011;44508;44.626;21.182;2023-02-25T01:19:23;43.78;;;16.83;;
58731;SDS011;44508;44.626;21.182;2023-02-25T01:21:50;45.22;;;17.95;;
58731;SDS011;44508;44.626;21.182;2023-02-25T01:24:21;39.22;;;18.10;;
58731;SDS011;44508;44.626;21.182;2023-02-25T01:26:48;48.97;;;17.33;;
58731;SDS011;44508;44.626;21.182;2023-02-25T01:29:17;46.67;;;16.90;;
58731;SDS011;44508;44.626;21.182;2023-02-25T01:31:44;43.25;;;16.17;;
58731;SDS011;44508;44.626;21.182;2023-02-25T01:34:14;44.75;;;16.00;;
58731;SDS011;44508;44.626;21.182;2023-02-25T01:36:41;42.75;;;15.82;;
58731;SDS011;44508;44.626;21.182;2023-02-25T01:39:07;38.45;;;14.93;;
58731;SDS011;44508;44.626;21.182;2023-02-25T01:41:34;34.92;;;13.80;;
58731;SDS011;44508;44.626;21.182;2023-02-25T01:44:03;39.00;;;14.48;;
58731;SDS011;44508;44.626;21.182;2023-02-25T01:46:30;46.00;;;17.02;;
58731;SDS011;44508;44.626;21.182;2023-02-25T01:48:56;41.20;;;15.55;;
58731;SDS011;44508;44.626;21.182;2023-02-25T01:51:22;42.03;;;16.80;;
58731;SDS011;44508;44.626;21.182;2023-02-25T01:53:51;47.58;;;16.23;;
58731;SDS011;44508;44.626;21.182;2023-02-25T01:56:17;41.22;;;18.17;;
58731;SDS011;44508;44.626;21.182;2023-02-25T01:58:44;36.70;;;16.13;;
58731;SDS011;44508;44.626;21.182;2023-02-25T02:01:11;42.58;;;16.98;;
58731;SDS011;44508;44.626;21.182;2023-02-25T02:03:39;42.47;;;15.80;;
58731;SDS011;44508;44.626;21.182;2023-02-25T02:06:10;34.10;;;15.70;;
58731;SDS011;44508;44.626;21.182;2023-02-25T02:08:37;42.58;;;16.25;;
58731;SDS011;44508;44.626;21.182;2023-02-25T02:11:03;49.20;;;16.55;;
58731;SDS011;44508;44.626;21.182;2023-02-25T02:13:30;38.67;;;15.75;;
58731;SDS011;44508;44.626;21.182;2023-02-25T02:18:47;32.30;;;15.00;;
58731;SDS011;44508;44.626;21.182;2023-02-25T02:44:01;41.55;;;17.75;;
58731;SDS011;44508;44.626;21.182;2023-02-25T02:46:34;51.22;;;18.35;;
58731;SDS011;44508;44.626;21.182;2023-02-25T02:51:35;48.00;;;18.15;;
58731;SDS011;44508;44.626;21.182;2023-02-25T02:54:03;43.97;;;17.38;;
58731;SDS011;44508;44.626;21.182;2023-02-25T02:56:30;44.28;;;16.40;;
58731;SDS011;44508;44.626;21.182;2023-02-25T02:59:00;46.08;;;17.30;;
58731;SDS011;44508;44.626;21.182;2023-02-25T03:01:30;44.33;;;18.80;;
58731;SDS011;44508;44.626;21.182;2023-02-25T03:03:59;44.05;;;17.45;;
58731;SDS011;44508;44.626;21.182;2023-02-25T03:06:31;58.78;;;18.20;;
58731;SDS011;44508;44.626;21.182;2023-02-25T03:09:03;46.60;;;16.58;;
58731;SDS011;44508;44.626;21.182;2023-02-25T03:11:30;42.08;;;17.40;;
58731;SDS011;44508;44.626;21.182;2023-02-25T03:13:57;44.15;;;17.65;;
58731;SDS011;44508;44.626;21.182;2023-02-25T03:16:28;48.58;;;18.10;;
58731;SDS011;44508;44.626;21.182;2023-02-25T03:19:00;46.15;;;17.13;;
58731;SDS011;44508;44.626;21.182;2023-02-25T03:21:29;38.90;;;16.15;;
58731;SDS011;44508;44.626;21.182;2023-02-25T03:23:57;37.58;;;15.50;;
58731;SDS011;44508;44.626;21.182;2023-02-25T03:26:28;30.70;;;15.25;;
58731;SDS011;44508;44.626;21.182;2023-02-25T03:28:54;40.22;;;14.80;;
58731;SDS011;44508;44.626;21.182;2023-02-25T03:34:00;43.83;;;16.35;;
58731;SDS011;44508;44.626;21.182;2023-02-25T03:36:32;41.92;;;14.77;;
58731;SDS011;44508;44.626;21.182;2023-02-25T03:39:09;40.97;;;15.10;;
58731;SDS011;44508;44.626;21.182;2023-02-25T03:41:37;42.67;;;16.50;;
58731;SDS011;44508;44.626;21.182;2023-02-25T03:44:06;41.58;;;14.77;;
58731;SDS011;44508;44.626;21.182;2023-02-25T03:46:33;38.60;;;15.60;;
58731;SDS011;44508;44.626;21.182;2023-02-25T03:49:00;39.45;;;15.57;;
58731;SDS011;44508;44.626;21.182;2023-02-25T03:51:28;41.33;;;14.88;;
58731;SDS011;44508;44.626;21.182;2023-02-25T03:53:55;34.92;;;14.63;;
58731;SDS011;44508;44.626;21.182;2023-02-25T03:56:21;41.85;;;14.88;;
58731;SDS011;44508;44.626;21.182;2023-02-25T03:58:48;38.97;;;16.65;;
58731;SDS011;44508;44.626;21.182;2023-02-25T04:01:15;43.70;;;17.67;;
58731;SDS011;44508;44.626;21.182;2023-02-25T04:03:42;45.42;;;16.58;;
58731;SDS011;44508;44.626;21.182;2023-02-25T04:06:09;37.70;;;15.93;;
58731;SDS011;44508;44.626;21.182;2023-02-25T04:08:36;45.00;;;16.00;;
58731;SDS011;44508;44.626;21.182;2023-02-25T04:11:02;34.50;;;14.02;;
58731;SDS011;44508;44.626;21.182;2023-02-25T04:13:28;43.25;;;13.90;;
58731;SDS011;44508;44.626;21.182;2023-02-25T04:15:54;36.13;;;14.02;;
58731;SDS011;44508;44.626;21.182;2023-02-25T04:18:20;34.13;;;12.80;;
58731;SDS011;44508;44.626;21.182;2023-02-25T04:20:48;27.30;;;11.50;;
58731;SDS011;44508;44.626;21.182;2023-02-25T04:23:14;30.88;;;12.48;;
58731;SDS011;44508;44.626;21.182;2023-02-25T04:25:41;32.20;;;12.20;;
58731;SDS011;44508;44.626;21.182;2023-02-25T04:28:07;36.70;;;11.38;;
58731;SDS011;44508;44.626;21.182;2023-02-25T04:30:34;40.33;;;12.32;;
58731;SDS011;44508;44.626;21.182;2023-02-25T04:33:00;30.63;;;11.20;;
58731;SDS011;44508;44.626;21.182;2023-02-25T04:35:26;31.73;;;11.77;;
58731;SDS011;44508;44.626;21.182;2023-02-25T04:37:52;38.38;;;10.15;;
58731;SDS011;44508;44.626;21.182;2023-02-25T04:40:20;30.63;;;12.32;;
58731;SDS011;44508;44.626;21.182;2023-02-25T04:42:46;31.27;;;13.25;;
58731;SDS011;44508;44.626;21.182;2023-02-25T04:45:13;50.72;;;23.05;;
58731;SDS011;44508;44.626;21.182;2023-02-25T04:47:39;34.20;;;17.23;;
58731;SDS011;44508;44.626;21.182;2023-02-25T04:50:06;31.63;;;15.32;;
58731;SDS011;44508;44.626;21.182;2023-02-25T04:52:32;32.63;;;14.63;;
58731;SDS011;44508;44.626;21.182;2023-02-25T04:54:58;36.20;;;18.00;;
58731;SDS011;44508;44.626;21.182;2023-02-25T04:57:24;37.72;;;16.80;;
58731;SDS011;44508;44.626;21.182;2023-02-25T04:59:50;30.80;;;15.00;;
58731;SDS011;44508;44.626;21.182;2023-02-25T05:02:17;39.45;;;15.95;;
58731;SDS011;44508;44.626;21.182;2023-02-25T05:04:43;35.33;;;15.98;;
58731;SDS011;44508;44.626;21.182;2023-02-25T05:07:09;38.40;;;15.93;;
58731;SDS011;44508;44.626;21.182;2023-02-25T05:09:35;37.83;;;16.40;;
58731;SDS011;44508;44.626;21.182;2023-02-25T05:12:01;35.47;;;16.27;;
58731;SDS011;44508;44.626;21.182;2023-02-25T05:14:27;39.42;;;15.60;;
58731;SDS011;44508;44.626;21.182;2023-02-25T05:16:53;39.17;;;16.42;;
58731;SDS011;44508;44.626;21.182;2023-02-25T05:19:21;37.72;;;15.77;;
58731;SDS011;44508;44.626;21.182;2023-02-25T05:21:48;34.60;;;15.38;;
58731;SDS011;44508;44.626;21.182;2023-02-25T05:24:14;50.75;;;19.50;;
58731;SDS011;44508;44.626;21.182;2023-02-25T05:26:40;36.05;;;18.60;;
58731;SDS011;44508;44.626;21.182;2023-02-25T05:29:07;40.03;;;17.83;;
58731;SDS011;44508;44.626;21.182;2023-02-25T05:31:33;37.42;;;16.45;;
58731;SDS011;44508;44.626;21.182;2023-02-25T05:33:59;31.75;;;15.75;;
58731;SDS011;44508;44.626;21.182;2023-02-25T05:36:25;29.02;;;14.82;;
58731;SDS011;44508;44.626;21.182;2023-02-25T05:38:52;37.10;;;15.63;;
58731;SDS011;44508;44.626;21.182;2023-02-25T05:41:19;25.63;;;13.23;;
58731;SDS011;44508;44.626;21.182;2023-02-25T05:43:45;30.58;;;13.23;;
58731;SDS011;44508;44.626;21.182;2023-02-25T05:46:12;26.55;;;12.40;;
58731;SDS011;44508;44.626;21.182;2023-02-25T05:48:39;34.33;;;16.60;;
58731;SDS011;44508;44.626;21.182;2023-02-25T05:51:13;37.38;;;15.80;;
58731;SDS011;44508;44.626;21.182;2023-02-25T05:53:39;48.72;;;25.33;;
58731;SDS011;44508;44.626;21.182;2023-02-25T05:56:07;28.10;;;11.40;;
58731;SDS011;44508;44.626;21.182;2023-02-25T05:58:34;27.13;;;13.32;;
58731;SDS011;44508;44.626;21.182;2023-02-25T06:01:04;29.38;;;15.35;;
58731;SDS011;44508;44.626;21.182;2023-02-25T06:03:34;41.33;;;20.23;;
58731;SDS011;44508;44.626;21.182;2023-02-25T06:06:01;22.10;;;12.35;;
58731;SDS011;44508;44.626;21.182;2023-02-25T06:08:27;23.30;;;10.90;;
58731;SDS011;44508;44.626;21.182;2023-02-25T06:10:53;26.02;;;12.35;;
58731;SDS011;44508;44.626;21.182;2023-02-25T06:13:19;30.55;;;14.32;;
58731;SDS011;44508;44.626;21.182;2023-02-25T06:15:45;28.80;;;15.40;;
58731;SDS011;44508;44.626;21.182;2023-02-25T06:18:11;68.65;;;33.38;;
58731;SDS011;44508;44.626;21.182;2023-02-25T06:20:37;126.47;;;61.75;;
58731;SDS011;44508;44.626;21.182;2023-02-25T06:23:03;94.95;;;49.10;;
58731;SDS011;44508;44.626;21.182;2023-02-25T06:25:29;97.07;;;48.95;;
58731;SDS011;44508;44.626;21.182;2023-02-25T06:27:56;48.22;;;22.90;;
58731;SDS011;44508;44.626;21.182;2023-02-25T06:30:22;30.33;;;14.05;;
58731;SDS011;44508;44.626;21.182;2023-02-25T06:32:48;32.47;;;14.50;;
58731;SDS011;44508;44.626;21.182;2023-02-25T06:35:14;29.80;;;13.70;;
58731;SDS011;44508;44.626;21.182;2023-02-25T06:37:40;25.63;;;13.23;;
58731;SDS011;44508;44.626;21.182;2023-02-25T06:40:07;25.63;;;12.90;;
58731;SDS011;44508;44.626;21.182;2023-02-25T06:42:36;31.85;;;13.23;;
58731;SDS011;44508;44.626;21.182;2023-02-25T06:45:02;32.15;;;13.25;;
58731;SDS011;44508;44.626;21.182;2023-02-25T06:47:28;27.17;;;12.90;;
58731;SDS011;44508;44.626;21.182;2023-02-25T06:49:54;33.70;;;14.70;;
58731;SDS011;44508;44.626;21.182;2023-02-25T06:52:21;29.17;;;14.52;;
58731;SDS011;44508;44.626;21.182;2023-02-25T06:54:48;34.03;;;16.70;;
58731;SDS011;44508;44.626;21.182;2023-02-25T06:57:14;33.35;;;17.17;;
58731;SDS011;44508;44.626;21.182;2023-02-25T06:59:40;30.27;;;16.33;;
58731;SDS011;44508;44.626;21.182;2023-02-25T07:02:09;36.00;;;16.23;;
58731;SDS011;44508;44.626;21.182;2023-02-25T07:04:36;32.70;;;16.45;;
58731;SDS011;44508;44.626;21.182;2023-02-25T07:07:02;30.95;;;16.67;;
58731;SDS011;44508;44.626;21.182;2023-02-25T07:09:28;32.38;;;17.17;;
58731;SDS011;44508;44.626;21.182;2023-02-25T07:11:54;30.35;;;17.15;;
58731;SDS011;44508;44.626;21.182;2023-02-25T07:14:20;32.15;;;16.55;;
58731;SDS011;44508;44.626;21.182;2023-02-25T07:16:46;33.28;;;16.95;;
58731;SDS011;44508;44.626;21.182;2023-02-25T07:19:12;29.35;;;16.73;;
58731;SDS011;44508;44.626;21.182;2023-02-25T07:21:40;30.40;;;17.27;;
58731;SDS011;44508;44.626;21.182;2023-02-25T07:24:09;34.13;;;15.82;;
58731;SDS011;44508;44.626;21.182;2023-02-25T07:26:35;34.17;;;18.40;;
58731;SDS011;44508;44.626;21.182;2023-02-25T07:29:02;40.33;;;18.45;;
58731;SDS011;44508;44.626;21.182;2023-02-25T07:31:29;34.45;;;17.25;;
58731;SDS011;44508;44.626;21.182;2023-02-25T07:33:56;40.83;;;16.33;;
58731;SDS011;44508;44.626;21.182;2023-02-25T07:36:24;29.30;;;16.50;;
58731;SDS011;44508;44.626;21.182;2023-02-25T07:38:51;38.90;;;16.73;;
58731;SDS011;44508;44.626;21.182;2023-02-25T07:41:18;27.90;;;17.08;;
58731;SDS011;44508;44.626;21.182;2023-02-25T07:43:44;38.00;;;18.60;;
58731;SDS011;44508;44.626;21.182;2023-02-25T07:46:10;37.53;;;19.02;;
58731;SDS011;44508;44.626;21.182;2023-02-25T07:48:39;36.22;;;19.27;;
58731;SDS011;44508;44.626;21.182;2023-02-25T07:51:07;30.33;;;18.20;;
58731;SDS011;44508;44.626;21.182;2023-02-25T07:53:33;31.83;;;18.33;;
58731;SDS011;44508;44.626;21.182;2023-02-25T07:55:59;34.38;;;17.77;;
58731;SDS011;44508;44.626;21.182;2023-02-25T07:58:25;27.60;;;14.43;;
58731;SDS011;44508;44.626;21.182;2023-02-25T08:00:52;26.58;;;15.95;;
58731;SDS011;44508;44.626;21.182;2023-02-25T08:03:19;32.70;;;17.15;;
58731;SDS011;44508;44.626;21.182;2023-02-25T08:05:48;33.13;;;16.23;;
58731;SDS011;44508;44.626;21.182;2023-02-25T08:08:14;34.53;;;16.48;;
58731;SDS011;44508;44.626;21.182;2023-02-25T08:10:40;32.40;;;18.05;;
58731;SDS011;44508;44.626;21.182;2023-02-25T08:13:07;27.52;;;15.50;;
58731;SDS011;44508;44.626;21.182;2023-02-25T08:15:33;30.15;;;17.00;;
58731;SDS011;44508;44.626;21.182;2023-02-25T08:17:59;35.58;;;17.67;;
58731;SDS011;44508;44.626;21.182;2023-02-25T08:20:25;30.60;;;18.10;;
58731;SDS011;44508;44.626;21.182;2023-02-25T08:22:51;32.90;;;18.90;;
58731;SDS011;44508;44.626;21.182;2023-02-25T08:25:20;47.67;;;27.35;;
58731;SDS011;44508;44.626;21.182;2023-02-25T08:27:46;69.65;;;47.42;;
58731;SDS011;44508;44.626;21.182;2023-02-25T08:30:13;86.13;;;65.68;;
58731;SDS011;44508;44.626;21.182;2023-02-25T08:32:39;83.55;;;64.45;;
58731;SDS011;44508;44.626;21.182;2023-02-25T08:35:06;87.97;;;64.47;;
58731;SDS011;44508;44.626;21.182;2023-02-25T08:37:32;79.35;;;60.80;;
58731;SDS011;44508;44.626;21.182;2023-02-25T08:39:58;89.28;;;66.15;;
58731;SDS011;44508;44.626;21.182;2023-02-25T08:42:24;62.25;;;39.70;;
58731;SDS011;44508;44.626;21.182;2023-02-25T08:44:50;60.90;;;42.03;;
58731;SDS011;44508;44.626;21.182;2023-02-25T08:47:16;56.97;;;41.40;;
58731;SDS011;44508;44.626;21.182;2023-02-25T08:49:42;58.72;;;43.08;;
58731;SDS011;44508;44.626;21.182;2023-02-25T08:52:08;59.03;;;41.60;;
58731;SDS011;44508;44.626;21.182;2023-02-25T08:54:36;45.88;;;27.35;;
58731;SDS011;44508;44.626;21.182;2023-02-25T08:57:02;41.00;;;23.27;;
58731;SDS011;44508;44.626;21.182;2023-02-25T08:59:29;35.65;;;19.95;;
58731;SDS011;44508;44.626;21.182;2023-02-25T09:02:00;31.98;;;16.00;;
58731;SDS011;44508;44.626;21.182;2023-02-25T09:04:26;32.63;;;17.88;;
58731;SDS011;44508;44.626;21.182;2023-02-25T09:06:52;38.53;;;19.13;;
58731;SDS011;44508;44.626;21.182;2023-02-25T09:09:19;36.22;;;19.48;;
58731;SDS011;44508;44.626;21.182;2023-02-25T09:11:46;43.40;;;21.63;;
58731;SDS011;44508;44.626;21.182;2023-02-25T09:14:13;42.70;;;20.92;;
58731;SDS011;44508;44.626;21.182;2023-02-25T09:16:39;32.08;;;18.80;;
58731;SDS011;44508;44.626;21.182;2023-02-25T09:19:05;34.33;;;18.88;;
58731;SDS011;44508;44.626;21.182;2023-02-25T09:21:32;35.15;;;18.52;;
58731;SDS011;44508;44.626;21.182;2023-02-25T09:24:00;41.90;;;20.15;;
58731;SDS011;44508;44.626;21.182;2023-02-25T09:26:26;33.97;;;17.63;;
58731;SDS011;44508;44.626;21.182;2023-02-25T09:28:52;33.78;;;18.25;;
58731;SDS011;44508;44.626;21.182;2023-02-25T09:31:18;30.80;;;18.17;;
58731;SDS011;44508;44.626;21.182;2023-02-25T09:33:44;28.80;;;17.02;;
58731;SDS011;44508;44.626;21.182;2023-02-25T09:38:37;34.67;;;18.88;;
58731;SDS011;44508;44.626;21.182;2023-02-25T09:41:03;32.70;;;17.83;;
58731;SDS011;44508;44.626;21.182;2023-02-25T09:43:40;26.08;;;16.17;;
58731;SDS011;44508;44.626;21.182;2023-02-25T09:46:12;35.00;;;16.70;;
58731;SDS011;44508;44.626;21.182;2023-02-25T09:48:40;36.75;;;17.30;;
58731;SDS011;44508;44.626;21.182;2023-02-25T09:51:16;35.33;;;19.70;;
58731;SDS011;44508;44.626;21.182;2023-02-25T09:56:45;38.17;;;19.33;;
58731;SDS011;44508;44.626;21.182;2023-02-25T09:59:15;38.45;;;21.77;;
58731;SDS011;44508;44.626;21.182;2023-02-25T10:01:59;47.13;;;24.90;;
58731;SDS011;44508;44.626;21.182;2023-02-25T10:04:35;41.22;;;24.58;;
58731;SDS011;44508;44.626;21.182;2023-02-25T10:07:14;45.13;;;24.65;;
58731;SDS011;44508;44.626;21.182;2023-02-25T10:17:58;40.97;;;24.35;;
58731;SDS011;44508;44.626;21.182;2023-02-25T10:25:41;49.25;;;24.83;;
58731;SDS011;44508;44.626;21.182;2023-02-25T10:28:12;48.67;;;25.85;;
58731;SDS011;44508;44.626;21.182;2023-02-25T10:33:18;42.20;;;24.30;;
58731;SDS011;44508;44.626;21.182;2023-02-25T10:35:46;44.08;;;25.50;;
58731;SDS011;44508;44.626;21.182;2023-02-25T10:38:14;38.90;;;24.45;;
58731;SDS011;44508;44.626;21.182;2023-02-25T10:40:40;44.63;;;26.13;;
58731;SDS011;44508;44.626;21.182;2023-02-25T10:43:20;44.95;;;26.00;;
58731;SDS011;44508;44.626;21.182;2023-02-25T10:45:48;52.30;;;29.00;;
58731;SDS011;44508;44.626;21.182;2023-02-25T10:48:20;45.08;;;28.70;;
58731;SDS011;44508;44.626;21.182;2023-02-25T10:51:00;47.33;;;28.73;;
58731;SDS011;44508;44.626;21.182;2023-02-25T10:53:27;50.38;;;27.42;;
58731;SDS011;44508;44.626;21.182;2023-02-25T10:55:53;45.60;;;28.20;;
58731;SDS011;44508;44.626;21.182;2023-02-25T10:58:20;41.75;;;23.35;;
58731;SDS011;44508;44.626;21.182;2023-02-25T11:00:58;41.70;;;23.33;;
58731;SDS011;44508;44.626;21.182;2023-02-25T11:03:25;36.08;;;23.38;;
58731;SDS011;44508;44.626;21.182;2023-02-25T11:06:06;45.65;;;26.02;;
58731;SDS011;44508;44.626;21.182;2023-02-25T11:08:32;39.83;;;24.25;;
58731;SDS011;44508;44.626;21.182;2023-02-25T11:11:00;41.50;;;23.92;;
58731;SDS011;44508;44.626;21.182;2023-02-25T11:13:27;42.20;;;27.92;;
58731;SDS011;44508;44.626;21.182;2023-02-25T11:15:54;50.40;;;30.85;;
58731;SDS011;44508;44.626;21.182;2023-02-25T11:18:21;37.38;;;22.55;;
58731;SDS011;44508;44.626;21.182;2023-02-25T11:20:49;42.53;;;20.35;;
58731;SDS011;44508;44.626;21.182;2023-02-25T11:23:19;35.03;;;22.48;;
58731;SDS011;44508;44.626;21.182;2023-02-25T11:25:46;46.70;;;24.27;;
58731;SDS011;44508;44.626;21.182;2023-02-25T11:31:17;45.78;;;28.15;;
58731;SDS011;44508;44.626;21.182;2023-02-25T11:34:06;51.90;;;29.45;;
58731;SDS011;44508;44.626;21.182;2023-02-25T11:36:34;47.42;;;27.95;;
58731;SDS011;44508;44.626;21.182;2023-02-25T11:41:29;48.15;;;29.98;;
58731;SDS011;44508;44.626;21.182;2023-02-25T11:44:10;49.85;;;29.23;;
58731;SDS011;44508;44.626;21.182;2023-02-25T11:46:42;44.45;;;28.20;;
58731;SDS011;44508;44.626;21.182;2023-02-25T11:51:48;49.97;;;26.40;;
58731;SDS011;44508;44.626;21.182;2023-02-25T11:54:59;41.15;;;25.63;;
58731;SDS011;44508;44.626;21.182;2023-02-25T11:57:11;49.58;;;26.77;;
58731;SDS011;44508;44.626;21.182;2023-02-25T12:18:11;46.83;;;26.45;;
58731;SDS011;44508;44.626;21.182;2023-02-25T12:28:18;78.78;;;27.55;;
58731;SDS011;44508;44.626;21.182;2023-02-25T12:56:57;64.68;;;36.42;;
58731;SDS011;44508;44.626;21.182;2023-02-25T13:04:38;106.75;;;59.28;;
58731;SDS011;44508;44.626;21.182;2023-02-25T13:14:48;135.40;;;82.10;;
58731;SDS011;44508;44.626;21.182;2023-02-25T13:18:08;77.28;;;46.83;;
58731;SDS011;44508;44.626;21.182;2023-02-25T13:20:16;63.97;;;42.70;;
58731;SDS011;44508;44.626;21.182;2023-02-25T13:25:27;45.70;;;33.90;;
58731;SDS011;44508;44.626;21.182;2023-02-25T13:28:16;40.40;;;28.38;;
58731;SDS011;44508;44.626;21.182;2023-02-25T13:33:32;38.17;;;24.33;;
58731;SDS011;44508;44.626;21.182;2023-02-25T13:38:56;53.65;;;33.88;;
58731;SDS011;44508;44.626;21.182;2023-02-25T13:41:43;39.10;;;24.05;;
58731;SDS011;44508;44.626;21.182;2023-02-25T13:44:29;36.75;;;25.17;;
58731;SDS011;44508;44.626;21.182;2023-02-25T13:52:42;29.67;;;21.10;;
58731;SDS011;44508;44.626;21.182;2023-02-25T14:23:54;23.02;;;14.30;;
58731;SDS011;44508;44.626;21.182;2023-02-25T14:37:03;45.13;;;25.38;;
58731;SDS011;44508;44.626;21.182;2023-02-25T14:39:49;40.35;;;24.85;;
58731;SDS011;44508;44.626;21.182;2023-02-25T14:47:26;46.05;;;29.17;;
58731;SDS011;44508;44.626;21.182;2023-02-25T14:50:11;47.50;;;28.65;;
58731;SDS011;44508;44.626;21.182;2023-02-25T14:52:59;48.78;;;31.08;;
58731;SDS011;44508;44.626;21.182;2023-02-25T14:58:22;21.90;;;16.70;;
58731;SDS011;44508;44.626;21.182;2023-02-25T15:15:01;50.38;;;29.52;;
58731;SDS011;44508;44.626;21.182;2023-02-25T15:19:54;51.47;;;30.55;;
58731;SDS011;44508;44.626;21.182;2023-02-25T15:24:49;39.55;;;24.45;;
58731;SDS011;44508;44.626;21.182;2023-02-25T15:30:01;41.25;;;26.88;;
58731;SDS011;44508;44.626;21.182;2023-02-25T15:35:14;51.83;;;31.67;;
58731;SDS011;44508;44.626;21.182;2023-02-25T15:53:52;54.13;;;33.10;;
58731;SDS011;44508;44.626;21.182;2023-02-25T16:01:01;84.85;;;50.95;;
58731;SDS011;44508;44.626;21.182;2023-02-25T16:03:46;69.60;;;45.22;;
58731;SDS011;44508;44.626;21.182;2023-02-25T16:14:02;31.38;;;19.58;;
58731;SDS011;44508;44.626;21.182;2023-02-25T16:16:29;42.22;;;30.92;;
58731;SDS011;44508;44.626;21.182;2023-02-25T16:18:57;42.55;;;26.73;;
58731;SDS011;44508;44.626;21.182;2023-02-25T16:21:32;25.52;;;18.88;;
58731;SDS011;44508;44.626;21.182;2023-02-25T16:24:07;33.83;;;21.52;;
58731;SDS011;44508;44.626;21.182;2023-02-25T16:34:20;57.63;;;36.90;;
58731;SDS011;44508;44.626;21.182;2023-02-25T16:36:53;41.63;;;24.88;;
58731;SDS011;44508;44.626;21.182;2023-02-25T16:39:23;39.50;;;21.80;;
58731;SDS011;44508;44.626;21.182;2023-02-25T16:41:51;67.88;;;39.72;;
58731;SDS011;44508;44.626;21.182;2023-02-25T16:44:18;51.00;;;29.63;;
58731;SDS011;44508;44.626;21.182;2023-02-25T16:46:47;81.45;;;45.15;;
58731;SDS011;44508;44.626;21.182;2023-02-25T16:49:47;109.45;;;60.17;;
58731;SDS011;44508;44.626;21.182;2023-02-25T16:52:06;100.70;;;55.88;;
58731;SDS011;44508;44.626;21.182;2023-02-25T16:54:37;85.68;;;49.70;;
58731;SDS011;44508;44.626;21.182;2023-02-25T16:57:05;33.38;;;19.02;;
58731;SDS011;44508;44.626;21.182;2023-02-25T16:59:34;63.13;;;37.75;;
58731;SDS011;44508;44.626;21.182;2023-02-25T17:02:01;45.05;;;28.40;;
58731;SDS011;44508;44.626;21.182;2023-02-25T17:04:34;45.22;;;29.73;;
58731;SDS011;44508;44.626;21.182;2023-02-25T17:07:11;56.22;;;39.78;;
58731;SDS011;44508;44.626;21.182;2023-02-25T17:09:44;54.72;;;33.80;;
58731;SDS011;44508;44.626;21.182;2023-02-25T17:12:13;54.75;;;26.92;;
58731;SDS011;44508;44.626;21.182;2023-02-25T17:14:41;50.85;;;26.52;;
58731;SDS011;44508;44.626;21.182;2023-02-25T17:17:13;45.95;;;29.48;;
58731;SDS011;44508;44.626;21.182;2023-02-25T17:19:40;31.80;;;20.00;;
58731;SDS011;44508;44.626;21.182;2023-02-25T17:22:06;24.77;;;15.30;;
58731;SDS011;44508;44.626;21.182;2023-02-25T17:24:32;58.75;;;35.63;;
58731;SDS011;44508;44.626;21.182;2023-02-25T17:26:58;46.35;;;29.08;;
58731;SDS011;44508;44.626;21.182;2023-02-25T17:29:32;24.30;;;15.40;;
58731;SDS011;44508;44.626;21.182;2023-02-25T17:31:59;26.33;;;16.50;;
58731;SDS011;44508;44.626;21.182;2023-02-25T17:36:51;25.70;;;18.02;;
58731;SDS011;44508;44.626;21.182;2023-02-25T17:39:19;46.88;;;31.15;;
58731;SDS011;44508;44.626;21.182;2023-02-25T17:41:46;37.83;;;22.45;;
58731;SDS011;44508;44.626;21.182;2023-02-25T17:46:56;41.75;;;23.35;;
58731;SDS011;44508;44.626;21.182;2023-02-25T17:49:30;39.33;;;19.80;;
58731;SDS011;44508;44.626;21.182;2023-02-25T17:51:59;32.85;;;17.30;;
58731;SDS011;44508;44.626;21.182;2023-02-25T17:54:26;26.25;;;14.05;;
58731;SDS011;44508;44.626;21.182;2023-02-25T17:56:54;38.50;;;22.35;;
58731;SDS011;44508;44.626;21.182;2023-02-25T18:04:45;30.60;;;17.20;;
58731;SDS011;44508;44.626;21.182;2023-02-25T18:07:32;38.05;;;23.35;;
58731;SDS011;44508;44.626;21.182;2023-02-25T18:09:58;29.05;;;18.05;;
58731;SDS011;44508;44.626;21.182;2023-02-25T18:14:57;35.55;;;20.00;;
58731;SDS011;44508;44.626;21.182;2023-02-25T18:17:31;36.85;;;22.33;;
58731;SDS011;44508;44.626;21.182;2023-02-25T18:20:02;64.05;;;33.78;;
58731;SDS011;44508;44.626;21.182;2023-02-25T18:22:36;99.40;;;50.70;;
58731;SDS011;44508;44.626;21.182;2023-02-25T18:25:04;51.00;;;28.92;;
58731;SDS011;44508;44.626;21.182;2023-02-25T18:27:32;27.88;;;16.00;;
58731;SDS011;44508;44.626;21.182;2023-02-25T18:32:36;34.38;;;20.63;;
58731;SDS011;44508;44.626;21.182;2023-02-25T18:35:03;30.40;;;19.95;;
58731;SDS011;44508;44.626;21.182;2023-02-25T18:37:30;42.45;;;27.05;;
58731;SDS011;44508;44.626;21.182;2023-02-25T18:39:57;85.35;;;43.15;;